createdAt,value
2019-04-30T00:00:01.053Z,6.8
2019-04-30T00:00:50.686Z,6.77
2019-04-30T00:02:01.436Z,6.8
2019-04-30T00:02:50.711Z,6.77
2019-04-30T00:03:55.615Z,6.71
2019-04-30T00:04:50.745Z,6.81
2019-04-30T00:06:50.543Z,6.77
2019-04-30T00:07:54.915Z,6.69
2019-04-30T00:09:05.497Z,6.67
2019-04-30T00:09:57.640Z,6.64
2019-04-30T00:11:10.726Z,6.79
2019-04-30T00:12:01.363Z,6.67
2019-04-30T00:12:50.878Z,6.69
2019-04-30T00:13:59.950Z,6.7
2019-04-30T00:14:50.913Z,6.59
2019-04-30T00:16:02.670Z,6.67
2019-04-30T00:16:50.946Z,6.59
2019-04-30T00:18:05.486Z,6.69
2019-04-30T00:19:03.409Z,6.67
2019-04-30T00:20:00.611Z,6.67
2019-04-30T00:20:51.634Z,6.69
2019-04-30T00:22:02.702Z,6.67
2019-04-30T00:22:55.342Z,6.7
2019-04-30T00:23:51.064Z,6.59
2019-04-30T00:24:55.595Z,6.66
2019-04-30T00:25:50.890Z,6.64
2019-04-30T00:27:07.590Z,6.56
2019-04-30T00:27:52.950Z,6.54
2019-04-30T00:28:52.638Z,6.64
2019-04-30T00:29:51.164Z,6.62
2019-04-30T00:30:52.639Z,6.55
2019-04-30T00:31:51.957Z,6.51
2019-04-30T00:32:52.021Z,6.56
2019-04-30T00:33:57.689Z,6.56
2019-04-30T00:34:51.336Z,6.49
2019-04-30T00:36:00.449Z,6.49
2019-04-30T00:36:51.283Z,6.48
2019-04-30T00:38:01.211Z,6.49
2019-04-30T00:38:51.328Z,6.49
2019-04-30T00:39:57.877Z,6.49
2019-04-30T00:40:51.115Z,6.49
2019-04-30T00:41:52.342Z,6.54
2019-04-30T00:43:10.242Z,6.51
2019-04-30T00:43:55.408Z,6.51
2019-04-30T00:44:51.416Z,6.51
2019-04-30T00:45:52.139Z,6.46
2019-04-30T00:46:52.857Z,6.38
2019-04-30T00:47:52.753Z,6.49
2019-04-30T00:48:51.482Z,6.4
2019-04-30T00:49:57.428Z,6.48
2019-04-30T00:50:51.266Z,6.46
2019-04-30T00:51:58.859Z,6.44
2019-04-30T00:52:51.562Z,6.4
2019-04-30T00:53:58.235Z,6.31
2019-04-30T00:54:51.584Z,6.28
2019-04-30T00:56:51.370Z,6.27
2019-04-30T00:58:08.261Z,6.34
2019-04-30T00:58:51.652Z,6.28
2019-04-30T01:00:51.433Z,6.27
2019-04-30T01:02:07.604Z,6.34
2019-04-30T01:02:51.717Z,6.3
2019-04-30T01:03:55.815Z,6.34
2019-04-30T01:04:51.762Z,6.28
2019-04-30T01:05:52.551Z,6.3
2019-04-30T01:06:51.549Z,6.22
2019-04-30T01:07:57.474Z,6.18
2019-04-30T01:08:51.825Z,6.28
2019-04-30T01:09:55.272Z,6.22
2019-04-30T01:11:09.308Z,6.19
2019-04-30T01:11:52.957Z,6.21
2019-04-30T01:12:54.702Z,6.21
2019-04-30T01:13:59.028Z,6.14
2019-04-30T01:15:56.089Z,6.08
2019-04-30T01:16:53.893Z,6.06
2019-04-30T01:17:59.275Z,6.11
2019-04-30T01:18:53.885Z,6.11
2019-04-30T01:19:59.213Z,6.06
2019-04-30T01:21:53.919Z,6.09
2019-04-30T01:22:53.499Z,6.12
2019-04-30T01:23:59.090Z,6.08
2019-04-30T01:24:54.456Z,6.17
2019-04-30T01:25:56.040Z,6.06
2019-04-30T01:26:53.383Z,6.12
2019-04-30T01:27:53.857Z,6.11
2019-04-30T01:28:58.390Z,6.18
2019-04-30T01:30:08.239Z,6.06
2019-04-30T01:30:58.608Z,6.12
2019-04-30T01:31:53.629Z,6.14
2019-04-30T01:33:01.046Z,6.04
2019-04-30T01:33:53.745Z,5.97
2019-04-30T01:34:58.957Z,6.03
2019-04-30T01:35:53.350Z,6.03
2019-04-30T01:36:56.816Z,6.04
2019-04-30T01:37:53.619Z,5.96
2019-04-30T01:38:57.046Z,6
2019-04-30T01:39:54.040Z,6.04
2019-04-30T01:40:55.865Z,5.96
2019-04-30T01:41:53.358Z,5.97
2019-04-30T01:42:56.394Z,6.03
2019-04-30T01:43:53.559Z,6.01
2019-04-30T01:44:58.934Z,5.96
2019-04-30T01:46:15.043Z,5.93
2019-04-30T01:46:56.158Z,6
2019-04-30T01:47:54.411Z,5.94
2019-04-30T01:48:56.605Z,5.93
2019-04-30T01:50:00.810Z,5.89
2019-04-30T01:50:53.671Z,5.89
2019-04-30T01:51:57.240Z,5.79
2019-04-30T01:52:54.199Z,5.79
2019-04-30T01:53:53.389Z,5.86
2019-04-30T01:54:53.858Z,5.89
2019-04-30T01:55:54.274Z,5.91
2019-04-30T01:56:54.620Z,5.85
2019-04-30T01:57:53.952Z,5.93
2019-04-30T01:58:54.325Z,5.97
2019-04-30T02:01:09.102Z,5.83
2019-04-30T02:02:08.497Z,5.94
2019-04-30T02:02:54.348Z,5.9
2019-04-30T02:03:53.527Z,5.91
2019-04-30T02:04:54.004Z,5.79
2019-04-30T02:05:54.640Z,5.85
2019-04-30T02:06:54.158Z,5.85
2019-04-30T02:07:53.481Z,5.83
2019-04-30T02:08:54.188Z,5.9
2019-04-30T02:09:53.718Z,5.86
2019-04-30T02:10:55.963Z,5.86
2019-04-30T02:11:53.394Z,5.76
2019-04-30T02:12:54.153Z,5.71
2019-04-30T02:14:09.062Z,5.74
2019-04-30T02:14:55.949Z,5.71
2019-04-30T02:15:54.075Z,5.65
2019-04-30T02:16:54.245Z,5.68
2019-04-30T02:18:08.539Z,5.72
2019-04-30T02:18:54.336Z,5.72
2019-04-30T02:20:16.002Z,5.67
2019-04-30T02:20:54.338Z,5.76
2019-04-30T02:21:53.303Z,5.76
2019-04-30T02:22:53.470Z,5.68
2019-04-30T02:24:11.104Z,5.64
2019-04-30T02:24:53.534Z,5.67
2019-04-30T02:25:53.854Z,5.6
2019-04-30T02:26:53.339Z,5.63
2019-04-30T02:27:53.744Z,5.54
2019-04-30T02:28:54.353Z,5.64
2019-04-30T02:29:54.301Z,5.6
2019-04-30T02:30:55.077Z,5.67
2019-04-30T02:31:55.039Z,5.63
2019-04-30T02:33:09.542Z,5.49
2019-04-30T02:33:55.174Z,5.48
2019-04-30T02:35:54.969Z,5.53
2019-04-30T02:36:54.820Z,5.53
2019-04-30T02:37:55.341Z,5.45
2019-04-30T02:38:54.216Z,5.53
2019-04-30T02:39:55.142Z,5.53
2019-04-30T02:40:54.750Z,5.58
2019-04-30T02:41:55.503Z,5.48
2019-04-30T02:42:57.801Z,5.43
2019-04-30T02:43:54.626Z,5.53
2019-04-30T02:44:55.252Z,5.42
2019-04-30T02:45:54.762Z,5.45
2019-04-30T02:47:54.831Z,5.4
2019-04-30T02:48:55.254Z,5.4
2019-04-30T02:50:54.029Z,5.43
2019-04-30T02:51:54.825Z,5.42
2019-04-30T02:52:55.323Z,5.39
2019-04-30T02:53:55.355Z,5.53
2019-04-30T02:54:54.861Z,5.46
2019-04-30T02:55:54.743Z,5.42
2019-04-30T02:56:55.512Z,5.48
2019-04-30T02:57:54.755Z,5.43
2019-04-30T02:58:55.184Z,5.45
2019-04-30T02:59:54.496Z,5.45
2019-04-30T03:01:10.256Z,5.35
2019-04-30T03:01:55.053Z,5.36
2019-04-30T03:02:55.443Z,5.36
2019-04-30T03:03:54.980Z,5.3
2019-04-30T03:05:10.169Z,5.28
2019-04-30T03:06:55.205Z,5.28
2019-04-30T03:08:00.358Z,5.33
2019-04-30T03:08:56.111Z,5.28
2019-04-30T03:09:54.794Z,5.27
2019-04-30T03:10:59.899Z,5.28
2019-04-30T03:12:54.858Z,5.22
2019-04-30T03:14:10.211Z,5.22
2019-04-30T03:14:55.076Z,5.13
2019-04-30T03:15:54.009Z,5.17
2019-04-30T03:17:00.070Z,5.12
2019-04-30T03:17:55.513Z,5.07
2019-04-30T03:18:54.770Z,5.07
2019-04-30T03:19:55.025Z,5.15
2019-04-30T03:21:09.747Z,5.09
2019-04-30T03:21:54.819Z,5.1
2019-04-30T03:22:56.057Z,5.09
2019-04-30T03:24:10.684Z,5.09
2019-04-30T03:25:09.644Z,5.1
2019-04-30T03:26:12.826Z,5.04
2019-04-30T03:26:54.823Z,5.02
2019-04-30T03:28:09.798Z,5.03
2019-04-30T03:28:54.233Z,5.06
2019-04-30T03:29:55.155Z,4.99
2019-04-30T03:31:06.615Z,4.97
2019-04-30T03:32:02.010Z,4.92
2019-04-30T03:33:05.128Z,4.91
2019-04-30T03:34:01.494Z,4.89
2019-04-30T03:34:56.634Z,4.85
2019-04-30T03:36:04.166Z,4.89
2019-04-30T03:37:09.898Z,4.88
2019-04-30T03:37:54.537Z,4.82
2019-04-30T03:38:54.996Z,4.82
2019-04-30T03:39:54.292Z,4.78
2019-04-30T03:41:09.869Z,4.78
2019-04-30T03:42:10.151Z,4.77
2019-04-30T03:42:54.328Z,4.85
2019-04-30T03:43:54.975Z,4.8
2019-04-30T03:44:54.665Z,4.8
2019-04-30T03:45:54.903Z,4.85
2019-04-30T03:46:54.771Z,4.86
2019-04-30T03:47:55.408Z,4.88
2019-04-30T03:48:55.251Z,4.86
2019-04-30T03:49:54.934Z,4.84
2019-04-30T03:51:03.605Z,4.78
2019-04-30T03:51:54.867Z,4.77
2019-04-30T03:53:10.366Z,4.82
2019-04-30T03:53:55.096Z,4.77
2019-04-30T03:54:54.509Z,4.85
2019-04-30T03:55:55.486Z,4.88
2019-04-30T03:57:59.851Z,4.88
2019-04-30T03:58:55.196Z,4.96
2019-04-30T03:59:54.911Z,4.89
2019-04-30T04:00:55.083Z,4.88
2019-04-30T04:01:54.804Z,4.97
2019-04-30T04:02:55.106Z,4.96
2019-04-30T04:03:54.685Z,4.94
2019-04-30T04:05:00.878Z,4.94
2019-04-30T04:05:54.471Z,5.02
2019-04-30T04:06:54.430Z,4.91
2019-04-30T04:08:11.916Z,4.86
2019-04-30T04:08:54.708Z,4.94
2019-04-30T04:09:54.860Z,4.86
2019-04-30T04:11:00.307Z,4.91
2019-04-30T04:11:55.516Z,4.91
2019-04-30T04:12:54.800Z,4.88
2019-04-30T04:14:09.466Z,5.03
2019-04-30T04:15:54.607Z,4.92
2019-04-30T04:16:55.767Z,4.96
2019-04-30T04:17:55.371Z,5.02
2019-04-30T04:18:55.111Z,4.96
2019-04-30T04:19:54.887Z,5.03
2019-04-30T04:21:20.417Z,5.02
2019-04-30T04:21:55.585Z,5.04
2019-04-30T04:22:54.925Z,5
2019-04-30T04:23:54.953Z,5.03
2019-04-30T04:24:55.571Z,5.12
2019-04-30T04:25:54.727Z,5.15
2019-04-30T04:26:55.145Z,5.02
2019-04-30T04:27:55.876Z,5.09
2019-04-30T04:28:55.037Z,5.02
2019-04-30T04:29:56.114Z,5.09
2019-04-30T04:30:55.655Z,5.06
2019-04-30T04:31:55.285Z,5.13
2019-04-30T04:32:55.135Z,5.1
2019-04-30T04:34:55.738Z,5.27
2019-04-30T04:35:54.887Z,5.25
2019-04-30T04:36:55.699Z,5.3
2019-04-30T04:37:55.162Z,5.17
2019-04-30T04:38:55.198Z,5.33
2019-04-30T04:40:11.811Z,5.35
2019-04-30T04:40:55.301Z,5.4
2019-04-30T04:41:55.422Z,5.42
2019-04-30T04:42:55.242Z,5.49
2019-04-30T04:43:55.471Z,5.51
2019-04-30T04:44:55.386Z,5.48
2019-04-30T04:46:09.958Z,5.54
2019-04-30T04:46:55.606Z,5.61
2019-04-30T04:47:55.538Z,5.94
2019-04-30T04:48:55.367Z,6.28
2019-04-30T04:50:00.615Z,6.79
2019-04-30T04:50:55.124Z,7.35
2019-04-30T04:51:55.141Z,8
2019-04-30T04:52:55.160Z,8.41
2019-04-30T04:53:54.929Z,9.23
2019-04-30T04:54:55.713Z,9.61
2019-04-30T04:56:12.490Z,9.89
2019-04-30T04:57:19.019Z,9.81
2019-04-30T04:57:55.511Z,10.27
2019-04-30T04:58:55.043Z,10.56
2019-04-30T04:59:55.538Z,10.94
2019-04-30T05:00:55.321Z,11.27
2019-04-30T05:01:55.343Z,11.47
2019-04-30T05:02:55.205Z,11.67
2019-04-30T05:03:55.626Z,11.76
2019-04-30T05:04:55.648Z,12.02
2019-04-30T05:05:55.175Z,11.69
2019-04-30T05:06:55.465Z,12.01
2019-04-30T05:07:55.464Z,12.5
2019-04-30T05:08:55.734Z,12.42
2019-04-30T05:09:55.526Z,12.71
2019-04-30T05:10:55.537Z,12.87
2019-04-30T05:12:10.955Z,13.54
2019-04-30T05:12:55.945Z,12.96
2019-04-30T05:13:55.855Z,12.21
2019-04-30T05:14:55.877Z,12.78
2019-04-30T05:15:56.153Z,12.93
2019-04-30T05:16:55.930Z,13.01
2019-04-30T05:17:55.702Z,12.82
2019-04-30T05:18:55.975Z,12.75
2019-04-30T05:19:56.010Z,12.93
2019-04-30T05:20:56.027Z,13.3
2019-04-30T05:21:56.549Z,13.6
2019-04-30T05:23:56.201Z,14.64
2019-04-30T05:24:55.877Z,15.56
2019-04-30T05:25:56.191Z,15.71
2019-04-30T05:26:56.177Z,15.01
2019-04-30T05:28:11.161Z,15.31
2019-04-30T05:28:59.420Z,15.76
2019-04-30T05:29:56.255Z,16.3
2019-04-30T05:30:56.284Z,15.97
2019-04-30T05:31:56.310Z,16.28
2019-04-30T05:32:56.085Z,16.12
2019-04-30T05:34:58.547Z,16.86
2019-04-30T05:35:56.414Z,17.12
2019-04-30T05:36:56.444Z,16
2019-04-30T05:37:56.470Z,15.29
2019-04-30T05:38:56.495Z,15.69
2019-04-30T05:40:11.189Z,15.03
2019-04-30T05:40:56.300Z,14.8
2019-04-30T05:41:56.329Z,13.66
2019-04-30T05:43:13.719Z,12.5
2019-04-30T05:43:58.919Z,12.65
2019-04-30T05:44:56.660Z,13.62
2019-04-30T05:45:58.527Z,14.21
2019-04-30T05:46:56.717Z,13.62
2019-04-30T05:47:58.615Z,13.19
2019-04-30T05:48:56.800Z,13.66
2019-04-30T05:49:58.424Z,13.22
2019-04-30T05:50:59.180Z,13.85
2019-04-30T05:52:01.776Z,14.4
2019-04-30T05:54:11.577Z,14.24
2019-04-30T05:55:11.604Z,14.47
2019-04-30T05:55:56.966Z,14.15
2019-04-30T05:56:56.995Z,14.55
2019-04-30T05:58:03.834Z,14.55
2019-04-30T05:58:59.171Z,13.2
2019-04-30T05:59:58.542Z,12.35
2019-04-30T06:00:56.861Z,12.16
2019-04-30T06:01:59.082Z,12.96
2019-04-30T06:02:57.167Z,13
2019-04-30T06:03:57.201Z,13.11
2019-04-30T06:04:58.748Z,13.85
2019-04-30T06:05:58.630Z,14.84
2019-04-30T06:06:58.676Z,14.77
2019-04-30T06:07:59.291Z,14.78
2019-04-30T06:09:14.551Z,14.64
2019-04-30T06:09:59.581Z,14.43
2019-04-30T06:10:57.140Z,14.36
2019-04-30T06:11:59.045Z,14.92
2019-04-30T06:13:12.112Z,14.42
2019-04-30T06:14:12.140Z,14.8
2019-04-30T06:15:14.366Z,15.29
2019-04-30T06:15:58.831Z,15.59
2019-04-30T06:16:59.428Z,15.13
2019-04-30T06:18:15.853Z,15.68
2019-04-30T06:18:58.496Z,15.72
2019-04-30T06:19:59.061Z,15.94
2019-04-30T06:20:59.460Z,15.17
2019-04-30T06:22:13.300Z,15.2
2019-04-30T06:23:59.142Z,15.31
2019-04-30T06:24:59.455Z,16.46
2019-04-30T06:26:20.658Z,16.66
2019-04-30T06:26:58.958Z,17.11
2019-04-30T06:27:58.870Z,17.97
2019-04-30T06:29:12.580Z,17.58
2019-04-30T06:29:58.479Z,16.41
2019-04-30T06:31:12.642Z,15.57
2019-04-30T06:31:58.713Z,15.27
2019-04-30T06:32:59.303Z,14.37
2019-04-30T06:33:58.603Z,14.58
2019-04-30T06:34:59.275Z,15.01
2019-04-30T06:35:58.986Z,15.29
2019-04-30T06:37:02.013Z,15.27
2019-04-30T06:38:58.958Z,15.28
2019-04-30T06:39:59.138Z,16.27
2019-04-30T06:40:58.823Z,17.11
2019-04-30T06:42:14.972Z,17.44
2019-04-30T06:43:00.290Z,17.38
2019-04-30T06:43:58.739Z,17.16
2019-04-30T06:44:59.102Z,17.21
2019-04-30T06:45:58.938Z,16.66
2019-04-30T06:47:13.123Z,15.69
2019-04-30T06:47:58.763Z,15.46
2019-04-30T06:48:59.474Z,15.69
2019-04-30T06:49:58.721Z,16.07
2019-04-30T06:50:59.199Z,16.41
2019-04-30T06:51:58.840Z,17
2019-04-30T06:53:03.868Z,16.78
2019-04-30T06:53:58.736Z,17.12
2019-04-30T06:54:59.634Z,16.79
2019-04-30T06:56:13.401Z,16.39
2019-04-30T06:58:11.051Z,16.46
2019-04-30T06:58:59.067Z,16.94
2019-04-30T06:59:59.576Z,17.38
2019-04-30T07:00:59.548Z,18.15
2019-04-30T07:01:59.054Z,18.42
2019-04-30T07:03:13.612Z,17.9
2019-04-30T07:04:03.459Z,17.66
2019-04-30T07:05:01.167Z,17.18
2019-04-30T07:06:01.019Z,15.86
2019-04-30T07:06:59.107Z,16.09
2019-04-30T07:09:02.092Z,16.53
2019-04-30T07:10:03.742Z,16.66
2019-04-30T07:11:11.316Z,17.37
2019-04-30T07:11:59.432Z,17.12
2019-04-30T07:13:01.326Z,17.15
2019-04-30T07:13:59.957Z,17.38
2019-04-30T07:15:13.980Z,17.19
2019-04-30T07:16:00.939Z,17.01
2019-04-30T07:16:59.514Z,17.3
2019-04-30T07:18:14.073Z,16.25
2019-04-30T07:19:01.075Z,16.2
2019-04-30T07:20:02.212Z,17.25
2019-04-30T07:21:01.117Z,16.67
2019-04-30T07:22:14.225Z,16.23
2019-04-30T07:23:09.165Z,15.83
2019-04-30T07:23:59.768Z,15.86
2019-04-30T07:25:02.007Z,15.27
2019-04-30T07:26:01.426Z,15.8
2019-04-30T07:27:06.239Z,15.86
2019-04-30T07:28:02.343Z,15.83
2019-04-30T07:29:04.705Z,15.25
2019-04-30T07:30:14.439Z,14.7
2019-04-30T07:31:16.272Z,14.69
2019-04-30T07:32:01.633Z,14.7
2019-04-30T07:33:02.047Z,14.91
2019-04-30T07:34:01.812Z,15.39
2019-04-30T07:35:01.801Z,15.57
2019-04-30T07:36:04.103Z,15.47
2019-04-30T07:37:32.810Z,15.47
2019-04-30T07:40:01.406Z,16.04
2019-04-30T07:41:01.506Z,16.14
2019-04-30T07:42:02.284Z,16.33
2019-04-30T07:44:01.613Z,16.28
2019-04-30T07:45:00.612Z,16.53
2019-04-30T07:46:02.275Z,16.52
2019-04-30T07:47:04.216Z,16.58
2019-04-30T07:48:14.414Z,17.68
2019-04-30T07:49:14.443Z,18.37
2019-04-30T07:50:03.209Z,18.55
2019-04-30T07:51:01.683Z,19.06
2019-04-30T07:52:04.198Z,18.85
2019-04-30T07:53:13.585Z,17.66
2019-04-30T07:55:02.981Z,17.97
2019-04-30T07:56:02.144Z,18.3
2019-04-30T07:57:02.750Z,18.81
2019-04-30T07:58:01.828Z,19.14
2019-04-30T07:59:05.021Z,18.36
2019-04-30T08:00:02.925Z,18.66
2019-04-30T08:03:02.382Z,18.48
2019-04-30T08:03:19.942Z,18.62
2019-04-30T08:04:15.744Z,19.08
2019-04-30T08:05:15.761Z,19.74
2019-04-30T08:07:16.015Z,18.72
2019-04-30T08:08:30.007Z,17.86
2019-04-30T08:09:15.886Z,18.12
2019-04-30T08:10:15.915Z,18.91
2019-04-30T08:11:29.378Z,19.46
2019-04-30T08:12:31.618Z,19.16
2019-04-30T08:13:35.307Z,19.43
2019-04-30T08:14:16.047Z,19.71
2019-04-30T08:15:16.073Z,19.43
2019-04-30T08:16:16.092Z,19.73
2019-04-30T08:17:16.121Z,19.59
2019-04-30T08:18:16.149Z,19.74
2019-04-30T08:19:16.180Z,19.44
2019-04-30T08:20:19.611Z,19.21
2019-04-30T08:23:39.526Z,18.8
2019-04-30T08:25:31.027Z,18.55
2019-04-30T08:26:31.057Z,18.41
2019-04-30T08:27:16.418Z,18.29
2019-04-30T08:28:16.448Z,18.92
2019-04-30T08:29:31.922Z,19.74
2019-04-30T08:30:30.079Z,20.47
2019-04-30T08:31:19.525Z,20.32
2019-04-30T08:32:16.570Z,20.28
2019-04-30T08:33:16.604Z,20.03
2019-04-30T08:34:16.635Z,20.48
2019-04-30T08:35:16.661Z,21.22
2019-04-30T08:36:16.688Z,20.98
2019-04-30T08:37:22.787Z,19.96
2019-04-30T08:38:16.741Z,19.59
2019-04-30T08:39:16.773Z,19.81
2019-04-30T08:40:18.860Z,20.14
2019-04-30T08:41:31.498Z,19.86
2019-04-30T08:42:28.782Z,20.08
2019-04-30T08:43:16.898Z,19.98
2019-04-30T08:44:16.921Z,19.25
2019-04-30T08:45:35.499Z,18.88
2019-04-30T08:46:18.760Z,18.82
2019-04-30T08:47:31.684Z,18.44
2019-04-30T08:48:18.921Z,18.58
2019-04-30T08:49:19.206Z,18.73
2019-04-30T08:50:19.486Z,19.16
2019-04-30T08:51:20.850Z,19.22
2019-04-30T08:52:19.107Z,19.19
2019-04-30T08:53:33.289Z,19.56
2019-04-30T08:54:17.302Z,19.76
2019-04-30T08:55:24.723Z,19.5
2019-04-30T08:56:19.573Z,19.66
2019-04-30T08:57:31.963Z,19.78
2019-04-30T08:58:22.993Z,19.98
2019-04-30T08:59:19.166Z,19.91
2019-04-30T09:00:32.248Z,20.16
2019-04-30T09:01:19.440Z,20.39
2019-04-30T09:02:22.208Z,20.21
2019-04-30T09:03:19.251Z,20.38
2019-04-30T09:04:17.498Z,20.28
2019-04-30T09:05:18.516Z,20.41
2019-04-30T09:06:19.337Z,20.73
2019-04-30T09:07:19.496Z,20.41
2019-04-30T09:08:19.339Z,19.55
2019-04-30T09:09:18.728Z,18.98
2019-04-30T09:10:19.187Z,18.95
2019-04-30T09:12:19.557Z,19.36
2019-04-30T09:13:19.156Z,19.61
2019-04-30T09:14:18.639Z,19.58
2019-04-30T09:15:18.810Z,19.62
2019-04-30T09:16:19.389Z,19.56
2019-04-30T09:17:19.848Z,19.71
2019-04-30T09:18:19.046Z,19.69
2019-04-30T09:19:20.862Z,19.74
2019-04-30T09:20:19.393Z,19.36
2019-04-30T09:21:18.620Z,19.33
2019-04-30T09:22:21.971Z,18.9
2019-04-30T09:24:19.067Z,19.28
2019-04-30T09:25:19.407Z,19.48
2019-04-30T09:26:18.681Z,19.74
2019-04-30T09:27:19.481Z,19.77
2019-04-30T09:28:19.815Z,19.47
2019-04-30T09:29:32.866Z,19.62
2019-04-30T09:30:18.780Z,19.78
2019-04-30T09:31:19.740Z,20.03
2019-04-30T09:32:32.949Z,20.69
2019-04-30T09:33:19.384Z,21.21
2019-04-30T09:34:23.628Z,21.27
2019-04-30T09:35:19.549Z,21.28
2019-04-30T09:36:20.429Z,21.06
2019-04-30T09:37:18.771Z,20.88
2019-04-30T09:39:33.145Z,21.4
2019-04-30T09:40:23.714Z,21.31
2019-04-30T09:41:19.240Z,20.38
2019-04-30T09:42:19.430Z,20.13
2019-04-30T09:44:33.278Z,19.99
2019-04-30T09:45:18.784Z,20.2
2019-04-30T09:46:30.074Z,20.61
2019-04-30T09:47:20.027Z,20.7
2019-04-30T09:49:19.436Z,21.13
2019-04-30T09:50:18.904Z,21.04
2019-04-30T09:51:24.310Z,21.29
2019-04-30T09:52:21.793Z,21.64
2019-04-30T09:53:19.714Z,21.99
2019-04-30T09:54:22.683Z,21.82
2019-04-30T09:55:19.382Z,21.96
2019-04-30T09:56:19.395Z,21.77
2019-04-30T09:57:19.376Z,21.83
2019-04-30T09:58:23.680Z,21.24
2019-04-30T09:59:19.121Z,20.48
2019-04-30T10:00:19.442Z,20.33
2019-04-30T10:01:19.078Z,20.61
2019-04-30T10:02:21.399Z,21.28
2019-04-30T10:04:34.631Z,21.46
2019-04-30T10:05:22.822Z,21.65
2019-04-30T10:06:21.318Z,21.74
2019-04-30T10:07:19.566Z,22
2019-04-30T10:08:23.019Z,21.88
2019-04-30T10:09:19.446Z,21.67
2019-04-30T10:10:21.218Z,21.34
2019-04-30T10:11:19.352Z,20.88
2019-04-30T10:12:19.673Z,21.43
2019-04-30T10:13:19.410Z,21.22
2019-04-30T10:14:19.178Z,20.91
2019-04-30T10:15:21.283Z,21.14
2019-04-30T10:16:33.896Z,21.37
2019-04-30T10:17:19.503Z,21.06
2019-04-30T10:18:19.531Z,20.7
2019-04-30T10:19:21.521Z,20.58
2019-04-30T10:20:34.249Z,20.91
2019-04-30T10:21:21.470Z,20.97
2019-04-30T10:22:19.636Z,20.97
2019-04-30T10:23:21.772Z,20.92
2019-04-30T10:24:35.260Z,20.88
2019-04-30T10:25:19.723Z,20.79
2019-04-30T10:26:19.742Z,20.38
2019-04-30T10:27:21.588Z,20.29
2019-04-30T10:28:22.008Z,20.06
2019-04-30T10:29:19.849Z,20.14
2019-04-30T10:30:21.661Z,20.13
2019-04-30T10:31:21.414Z,20.18
2019-04-30T10:32:21.179Z,19.87
2019-04-30T10:33:21.978Z,19.66
2019-04-30T10:34:19.956Z,19.58
2019-04-30T10:35:34.644Z,19.63
2019-04-30T10:36:21.780Z,19.54
2019-04-30T10:37:21.367Z,19.46
2019-04-30T10:38:21.936Z,19.18
2019-04-30T10:39:23.977Z,19.29
2019-04-30T10:40:22.650Z,19.23
2019-04-30T10:41:21.281Z,19.4
2019-04-30T10:42:20.166Z,19.61
2019-04-30T10:43:22.167Z,19.18
2019-04-30T10:44:21.247Z,18.95
2019-04-30T10:46:20.266Z,18.81
2019-04-30T10:47:21.728Z,18.78
2019-04-30T10:48:20.318Z,18.7
2019-04-30T10:49:21.718Z,18.73
2019-04-30T10:50:20.368Z,18.55
2019-04-30T10:51:21.374Z,18.6
2019-04-30T10:52:21.681Z,18.5
2019-04-30T10:53:20.442Z,18.57
2019-04-30T10:54:31.447Z,18.35
2019-04-30T10:55:20.494Z,18.2
2019-04-30T10:56:21.726Z,18.15
2019-04-30T10:57:20.886Z,18.02
2019-04-30T11:00:35.289Z,17.78
2019-04-30T11:01:35.311Z,17.87
2019-04-30T11:02:35.338Z,18.1
2019-04-30T11:03:25.716Z,18.25
2019-04-30T11:04:20.729Z,18.27
2019-04-30T11:05:21.542Z,18.32
2019-04-30T11:06:21.748Z,18.44
2019-04-30T11:07:35.457Z,18.7
2019-04-30T11:08:20.816Z,19.1
2019-04-30T11:09:20.840Z,19.33
2019-04-30T11:10:21.368Z,19.31
2019-04-30T11:11:20.891Z,19.16
2019-04-30T11:12:21.787Z,18.8
2019-04-30T11:13:20.943Z,18.6
2019-04-30T11:14:20.968Z,18.44
2019-04-30T11:15:23.153Z,18.25
2019-04-30T11:16:21.340Z,18.11
2019-04-30T11:17:22.363Z,18.14
2019-04-30T11:18:21.716Z,18.42
2019-04-30T11:19:22.049Z,18.54
2019-04-30T11:20:24.420Z,18.69
2019-04-30T11:21:22.426Z,18.76
2019-04-30T11:22:21.782Z,19.02
2019-04-30T11:23:36.287Z,19.21
2019-04-30T11:25:22.894Z,19.21
2019-04-30T11:26:23.123Z,18.98
2019-04-30T11:27:24.031Z,19.1
2019-04-30T11:28:23.203Z,18.81
2019-04-30T11:29:36.412Z,18.58
2019-04-30T11:30:29.664Z,18.63
2019-04-30T11:31:36.595Z,19
2019-04-30T11:32:22.416Z,19.21
2019-04-30T11:33:22.045Z,18.95
2019-04-30T11:34:36.117Z,18.37
2019-04-30T11:35:25.320Z,18.41
2019-04-30T11:36:36.163Z,18.69
2019-04-30T11:37:21.521Z,18.82
2019-04-30T11:38:22.968Z,18.78
2019-04-30T11:39:36.236Z,18.85
2019-04-30T11:40:36.780Z,18.82
2019-04-30T11:41:35.734Z,18.91
2019-04-30T11:42:21.647Z,18.76
2019-04-30T11:43:23.288Z,18.84
2019-04-30T11:44:35.072Z,18.99
2019-04-30T11:45:21.890Z,18.98
2019-04-30T11:47:21.965Z,18.95
2019-04-30T11:48:23.855Z,18.87
2019-04-30T11:50:21.835Z,18.84
2019-04-30T11:51:26.776Z,18.7
2019-04-30T11:52:21.902Z,18.91
2019-04-30T11:53:33.142Z,18.85
2019-04-30T11:54:23.523Z,18.98
2019-04-30T11:55:36.622Z,19.13
2019-04-30T11:56:21.983Z,19.28
2019-04-30T11:57:23.551Z,19.14
2019-04-30T11:58:30.232Z,19.02
2019-04-30T11:59:22.050Z,19.1
2019-04-30T12:00:23.584Z,18.84
2019-04-30T12:01:24.230Z,18.69
2019-04-30T12:02:24.131Z,18.8
2019-04-30T12:03:24.010Z,19.1
2019-04-30T12:04:24.213Z,18.88
2019-04-30T12:05:25.485Z,18.55
2019-04-30T12:06:23.297Z,18.51
2019-04-30T12:07:22.344Z,18.67
2019-04-30T12:08:26.312Z,18.76
2019-04-30T12:10:36.983Z,18.54
2019-04-30T12:11:22.543Z,18.48
2019-04-30T12:12:23.761Z,18.33
2019-04-30T12:13:22.386Z,18.44
2019-04-30T12:15:24.037Z,18.37
2019-04-30T12:16:23.441Z,18.52
2019-04-30T12:17:22.484Z,18.6
2019-04-30T12:18:22.516Z,18.73
2019-04-30T12:19:23.711Z,18.58
2019-04-30T12:20:24.429Z,18.7
2019-04-30T12:21:22.582Z,18.72
2019-04-30T12:22:24.959Z,18.47
2019-04-30T12:23:23.790Z,18.45
2019-04-30T12:24:22.648Z,18.33
2019-04-30T12:25:23.493Z,18.42
2019-04-30T12:26:23.870Z,18.62
2019-04-30T12:27:23.507Z,18.84
2019-04-30T12:28:27.065Z,18.81
2019-04-30T12:29:23.932Z,18.94
2019-04-30T12:30:25.433Z,18.88
2019-04-30T12:31:23.498Z,18.75
2019-04-30T12:32:25.869Z,18.78
2019-04-30T12:33:23.980Z,18.92
2019-04-30T12:34:22.889Z,19.07
2019-04-30T12:35:22.913Z,19.16
2019-04-30T12:36:23.700Z,19.41
2019-04-30T12:38:24.042Z,19.5
2019-04-30T12:39:23.007Z,19.46
2019-04-30T12:40:34.819Z,19.21
2019-04-30T12:41:23.062Z,19.18
2019-04-30T12:42:38.434Z,19.06
2019-04-30T12:43:23.100Z,18.85
2019-04-30T12:45:24.251Z,19.16
2019-04-30T12:46:25.891Z,19.06
2019-04-30T12:48:25.074Z,19.13
2019-04-30T12:49:23.850Z,19.41
2019-04-30T12:50:24.317Z,19.39
2019-04-30T12:52:24.385Z,19.68
2019-04-30T12:53:23.343Z,19.71
2019-04-30T12:54:38.029Z,19.71
2019-04-30T12:55:25.131Z,19.68
2019-04-30T12:56:31.729Z,19.73
2019-04-30T12:57:24.036Z,19.91
2019-04-30T12:58:38.124Z,19.78
2019-04-30T12:59:23.485Z,19.74
2019-04-30T13:00:24.342Z,19.55
2019-04-30T13:01:23.529Z,19.61
2019-04-30T13:02:23.976Z,19.73
2019-04-30T13:03:23.578Z,19.71
2019-04-30T13:04:24.186Z,19.61
2019-04-30T13:05:23.704Z,19.83
2019-04-30T13:06:25.807Z,19.81
2019-04-30T13:07:27.445Z,19.78
2019-04-30T13:08:27.531Z,18.95
2019-04-30T13:09:26.165Z,18.72
2019-04-30T13:10:25.524Z,18.58
2019-04-30T13:11:27.978Z,18.72
2019-04-30T13:12:25.800Z,19.02
2019-04-30T13:13:25.817Z,19.06
2019-04-30T13:14:54.731Z,19.46
2019-04-30T13:16:24.206Z,19.44
2019-04-30T13:17:23.915Z,19.4
2019-04-30T13:18:24.311Z,19.41
2019-04-30T13:19:23.962Z,19.44
2019-04-30T13:21:24.009Z,19.39
2019-04-30T13:23:24.059Z,19.55
2019-04-30T13:24:24.297Z,19.55
2019-04-30T13:25:48.871Z,19.71
2019-04-30T13:26:24.228Z,19.44
2019-04-30T13:27:27.222Z,19.4
2019-04-30T13:28:24.174Z,19.5
2019-04-30T13:29:24.198Z,19.37
2019-04-30T13:30:39.566Z,19.32
2019-04-30T13:31:24.264Z,19.37
2019-04-30T13:32:35.365Z,19.46
2019-04-30T13:33:25.274Z,19.68
2019-04-30T13:34:24.475Z,19.76
2019-04-30T13:35:24.343Z,19.8
2019-04-30T13:36:24.639Z,19.96
2019-04-30T13:37:24.391Z,19.63
2019-04-30T13:38:24.416Z,19.63
2019-04-30T13:40:25.072Z,19.76
2019-04-30T13:41:24.490Z,19.94
2019-04-30T13:42:25.446Z,19.99
2019-04-30T13:43:24.532Z,19.83
2019-04-30T13:44:24.558Z,19.77
2019-04-30T13:45:41.181Z,19.71
2019-04-30T13:46:24.602Z,19.55
2019-04-30T13:47:24.633Z,19.58
2019-04-30T13:48:24.408Z,19.65
2019-04-30T13:49:24.686Z,19.77
2019-04-30T13:50:26.475Z,19.88
2019-04-30T13:51:24.724Z,19.99
2019-04-30T13:52:24.755Z,20.05
2019-04-30T13:53:24.775Z,20.13
2019-04-30T13:54:24.803Z,20.1
2019-04-30T13:55:24.822Z,20.17
2019-04-30T13:56:25.119Z,20.1